Time;durP1;ratioP1;P1;durP2;ratioP2;P2;SDS_P1;SDS_P2;PMS_P1;PMS_P2;Temp;Humidity;BMP_temperature;BMP_pressure;BME280_temperature;BME280_humidity;BME280_pressure;Samples;Min_cycle;Max_cycle;Signal;HPM_P1;HPM_P2
2021/10/05 00:01:56;;;;;;;36.05;15.75;;;;;;;16.85;36.67;101497.16;4958022;28;20050;-71
2021/10/05 00:04:22;;;;;;;30.90;15.20;;;;;;;16.88;36.84;101492.47;4990360;28;20141;-71
2021/10/05 00:06:48;;;;;;;29.63;14.80;;;;;;;16.94;36.62;101499.91;4990133;28;20046;-71
2021/10/05 00:09:14;;;;;;;32.20;14.07;;;;;;;16.93;36.66;101501.75;4973962;28;20053;-71
2021/10/05 00:11:40;;;;;;;29.67;14.73;;;;;;;16.88;36.91;101502.19;4974008;28;20078;-71
2021/10/05 00:14:06;;;;;;;29.55;14.88;;;;;;;16.99;36.62;101508.34;4974065;28;20092;-71
2021/10/05 00:16:31;;;;;;;28.15;14.25;;;;;;;16.94;36.67;101491.84;4973718;28;20058;-71
2021/10/05 00:18:58;;;;;;;35.50;13.82;;;;;;;16.93;36.71;101500.91;4973881;28;20142;-71
2021/10/05 00:21:24;;;;;;;27.13;13.80;;;;;;;16.90;36.77;101495.84;4957779;28;20382;-72
2021/10/05 00:23:49;;;;;;;26.92;14.45;;;;;;;16.83;36.62;101492.94;4957771;28;20050;-72
2021/10/05 00:26:15;;;;;;;28.73;13.95;;;;;;;16.80;36.86;101498.59;4973666;28;20590;-72
2021/10/05 00:28:41;;;;;;;29.67;14.00;;;;;;;16.78;36.83;101501.44;4973524;28;20565;-71
2021/10/05 00:31:08;;;;;;;25.60;14.75;;;;;;;16.82;37.08;101492.09;4957901;28;20043;-72
2021/10/05 00:33:34;;;;;;;27.35;15.05;;;;;;;16.60;37.33;101489.88;4973595;28;20048;-72
2021/10/05 00:36:00;;;;;;;31.23;16.80;;;;;;;16.58;37.26;101499.91;4957501;28;20042;-72
2021/10/05 00:38:26;;;;;;;32.67;16.75;;;;;;;16.55;37.33;101493.97;4973511;28;20511;-72
2021/10/05 00:40:52;;;;;;;31.65;16.27;;;;;;;16.49;37.36;101499.94;4973555;28;20074;-72
2021/10/05 00:43:17;;;;;;;32.38;15.77;;;;;;;16.43;37.25;101493.34;4973242;28;20074;-71
2021/10/05 00:45:43;;;;;;;37.95;16.42;;;;;;;16.35;37.64;101498.59;4957222;28;20043;-71
2021/10/05 00:48:09;;;;;;;37.58;17.23;;;;;;;16.34;37.61;101496.91;4973554;28;20175;-72
2021/10/05 00:50:35;;;;;;;39.25;16.35;;;;;;;16.26;37.77;101494.13;4973347;28;20086;-72
2021/10/05 00:53:01;;;;;;;32.00;16.67;;;;;;;16.24;37.84;101496.13;4940993;28;20055;-72
2021/10/05 00:55:27;;;;;;;30.50;16.35;;;;;;;16.18;37.51;101496.72;4972739;28;20086;-71
2021/10/05 00:57:53;;;;;;;40.90;17.88;;;;;;;16.11;37.92;101509.03;4957107;28;20384;-71
2021/10/05 01:00:21;;;;;;;36.38;17.95;;;;;;;16.35;37.95;101500.44;4972961;28;20042;-71
2021/10/05 01:02:48;;;;;;;38.13;17.98;;;;;;;16.27;37.76;101508.38;4989228;28;20569;-71
2021/10/05 01:05:14;;;;;;;36.20;18.02;;;;;;;16.09;38.07;101508.34;4957155;28;20050;-71
2021/10/05 01:07:40;;;;;;;41.92;18.52;;;;;;;16.06;37.75;101497.91;4973103;28;20046;-71
2021/10/05 01:10:07;;;;;;;35.05;16.65;;;;;;;16.21;37.75;101511.66;4956983;28;20050;-71
2021/10/05 01:12:33;;;;;;;47.35;17.55;;;;;;;16.01;37.91;101504.69;4972753;28;20440;-72
2021/10/05 01:14:58;;;;;;;42.78;17.70;;;;;;;16.06;37.83;101511.31;4973127;28;20042;-72
2021/10/05 01:17:24;;;;;;;31.80;15.75;;;;;;;16.07;37.64;101513.00;4973345;28;20495;-71
2021/10/05 01:19:50;;;;;;;32.08;15.85;;;;;;;15.99;37.86;101504.84;4989057;28;20062;-71
2021/10/05 01:22:16;;;;;;;36.15;16.40;;;;;;;16.05;37.71;101506.91;4977342;28;20050;-70
2021/10/05 01:24:42;;;;;;;29.98;15.82;;;;;;;16.06;37.78;101510.47;4968254;28;20052;-71
2021/10/05 01:27:08;;;;;;;30.80;15.60;;;;;;;16.05;37.79;101514.97;4977976;28;20145;-71
2021/10/05 01:29:34;;;;;;;31.27;15.52;;;;;;;16.16;37.66;101519.31;4972459;28;20043;-71
2021/10/05 01:32:03;;;;;;;31.23;15.45;;;;;;;16.36;37.79;101515.53;4956644;28;20557;-71
2021/10/05 01:34:29;;;;;;;29.08;15.55;;;;;;;16.21;37.44;101509.81;4972444;28;20047;-71
2021/10/05 01:36:58;;;;;;;33.42;14.27;;;;;;;16.60;37.25;101513.16;4972481;28;20058;-71
2021/10/05 01:39:33;;;;;;;34.95;15.27;;;;;;;16.70;37.18;101520.16;4972296;28;20046;-71
2021/10/05 01:42:08;;;;;;;28.00;14.15;;;;;;;16.80;36.83;101526.28;4972393;28;20065;-71
2021/10/05 01:44:35;;;;;;;31.15;14.13;;;;;;;16.51;37.08;101528.31;4972514;28;20057;-71
2021/10/05 01:47:03;;;;;;;24.95;13.18;;;;;;;16.53;36.88;101515.59;4988431;28;20058;-70
2021/10/05 01:49:29;;;;;;;25.45;13.43;;;;;;;16.31;37.30;101521.31;4956110;28;20046;-70
2021/10/05 01:51:55;;;;;;;29.05;13.10;;;;;;;16.34;36.76;101521.06;4940102;28;20055;-70
2021/10/05 01:54:21;;;;;;;27.83;13.40;;;;;;;16.32;36.88;101517.66;4956136;28;20047;-70
2021/10/05 01:56:47;;;;;;;27.10;13.93;;;;;;;16.26;37.25;101525.47;4939997;28;20042;-71
2021/10/05 01:59:13;;;;;;;22.58;13.45;;;;;;;16.11;37.32;101522.44;4956257;28;20039;-72
2021/10/05 02:01:39;;;;;;;25.45;12.65;;;;;;;16.05;37.69;101520.31;4955933;28;20039;-71
2021/10/05 02:04:08;;;;;;;25.60;13.30;;;;;;;16.35;37.31;101508.47;4971923;28;20049;-71
2021/10/05 02:06:34;;;;;;;28.33;13.40;;;;;;;16.00;37.47;101508.38;4987563;28;20051;-71
2021/10/05 02:09:01;;;;;;;26.23;14.02;;;;;;;15.93;37.78;101526.03;4939784;28;20095;-71
2021/10/05 02:11:26;;;;;;;25.55;12.90;;;;;;;15.86;37.89;101523.09;4971792;28;20399;-71
2021/10/05 02:13:52;;;;;;;25.90;12.70;;;;;;;15.73;38.07;101529.78;4955554;28;20053;-71
2021/10/05 02:16:18;;;;;;;26.67;13.80;;;;;;;15.76;38.04;101524.94;4971777;28;20042;-71
2021/10/05 02:18:46;;;;;;;28.77;13.85;;;;;;;15.65;38.21;101519.78;4971893;28;20053;-72
2021/10/05 02:21:16;;;;;;;27.95;13.75;;;;;;;16.01;37.98;101531.50;4955898;28;20082;-71
2021/10/05 02:26:28;;;;;;;26.50;13.45;;;;;;;15.67;38.34;101528.50;4971417;28;20050;-72
2021/10/05 02:28:54;;;;;;;26.52;12.82;;;;;;;15.62;38.25;101535.28;4955547;28;20050;-72
2021/10/05 02:31:20;;;;;;;24.52;13.07;;;;;;;15.63;38.15;101524.44;4955782;28;20038;-71
2021/10/05 02:33:46;;;;;;;33.30;14.27;;;;;;;15.55;38.31;101535.00;4987850;28;20133;-72
2021/10/05 02:36:11;;;;;;;29.23;14.18;;;;;;;15.52;38.26;101527.25;4955507;28;20190;-70
2021/10/05 02:38:37;;;;;;;29.30;14.02;;;;;;;15.50;38.68;101534.59;4955346;28;20603;-71
2021/10/05 02:41:04;;;;;;;28.02;14.00;;;;;;;15.57;38.48;101535.72;4971269;28;20161;-71
2021/10/05 02:43:30;;;;;;;26.92;13.27;;;;;;;15.50;38.63;101529.22;4987265;28;20043;-70
2021/10/05 02:45:56;;;;;;;28.00;14.25;;;;;;;15.43;38.64;101530.81;4970781;28;20054;-71
2021/10/05 02:48:21;;;;;;;27.27;14.57;;;;;;;15.43;38.75;101538.00;4970808;28;20144;-70
2021/10/05 02:50:47;;;;;;;34.75;15.25;;;;;;;15.46;38.57;101527.84;4954809;28;20042;-71
2021/10/05 02:53:13;;;;;;;30.10;14.45;;;;;;;15.42;38.74;101536.31;4971050;28;20219;-70
2021/10/05 02:55:40;;;;;;;30.15;14.13;;;;;;;15.45;38.66;101538.69;4970900;28;20112;-70
2021/10/05 02:58:07;;;;;;;34.30;14.02;;;;;;;15.66;38.52;101531.31;4970654;28;20042;-71
2021/10/05 03:00:33;;;;;;;31.23;14.65;;;;;;;15.70;38.34;101544.28;4970919;28;20392;-70
2021/10/05 03:02:59;;;;;;;28.15;14.50;;;;;;;15.66;38.25;101539.34;4987270;28;20054;-71
2021/10/05 03:05:25;;;;;;;29.35;13.65;;;;;;;15.76;38.07;101541.00;4970530;28;20149;-71
2021/10/05 03:07:51;;;;;;;34.67;15.52;;;;;;;15.75;38.05;101539.34;4970854;28;20074;-72
2021/10/05 03:10:17;;;;;;;32.75;15.57;;;;;;;15.74;38.24;101539.47;4971268;28;20158;-72
2021/10/05 03:12:43;;;;;;;27.60;14.75;;;;;;;15.65;38.19;101541.22;4954822;28;20078;-71
2021/10/05 03:15:09;;;;;;;27.48;14.43;;;;;;;15.71;38.18;101532.59;4970673;28;20113;-71
2021/10/05 03:17:34;;;;;;;30.88;14.70;;;;;;;15.75;38.05;101542.03;4986735;28;20426;-71
2021/10/05 03:20:01;;;;;;;30.67;14.20;;;;;;;15.57;38.92;101524.16;4958203;28;20541;-72
2021/10/05 03:22:26;;;;;;;30.45;14.27;;;;;;;15.76;38.56;101542.88;4958581;28;20051;-72
2021/10/05 03:24:52;;;;;;;31.63;15.00;;;;;;;15.81;38.21;101536.06;4974239;28;20053;-71
2021/10/05 03:27:18;;;;;;;40.17;14.18;;;;;;;15.86;38.00;101544.53;4974774;28;20185;-71
2021/10/05 03:29:44;;;;;;;31.67;14.50;;;;;;;15.91;38.12;101544.94;4958304;28;20047;-71
2021/10/05 03:32:10;;;;;;;23.77;13.32;;;;;;;15.86;38.32;101547.22;4974486;28;20054;-71
2021/10/05 03:34:36;;;;;;;32.33;14.55;;;;;;;15.96;38.17;101539.16;4974391;28;20093;-71
2021/10/05 03:37:02;;;;;;;27.92;12.82;;;;;;;16.22;38.00;101553.56;4974360;28;20047;-71
2021/10/05 03:39:28;;;;;;;32.13;14.48;;;;;;;16.12;37.93;101558.13;4958275;28;20130;-71
2021/10/05 03:41:54;;;;;;;26.50;13.35;;;;;;;16.24;37.65;101549.75;4958248;28;20495;-70
2021/10/05 03:44:20;;;;;;;43.15;13.60;;;;;;;16.35;37.46;101559.44;4974565;28;20047;-70
2021/10/05 03:46:45;;;;;;;28.17;13.27;;;;;;;16.43;37.36;101555.03;4973764;28;20043;-70
2021/10/05 03:49:11;;;;;;;33.20;13.30;;;;;;;16.49;37.38;101556.28;4974111;28;20262;-71
2021/10/05 03:51:37;;;;;;;29.42;13.00;;;;;;;16.52;37.31;101551.47;4957787;28;20055;-70
2021/10/05 03:54:03;;;;;;;23.23;12.45;;;;;;;16.66;36.84;101566.22;4973854;28;20042;-70
2021/10/05 03:56:29;;;;;;;28.92;12.90;;;;;;;16.68;36.89;101558.88;4957929;28;20058;-70
2021/10/05 03:58:54;;;;;;;21.55;12.00;;;;;;;16.60;37.25;101566.81;4973780;28;20051;-70
2021/10/05 04:01:20;;;;;;;30.58;12.40;;;;;;;16.74;36.98;101563.63;4990449;28;20533;-71
2021/10/05 04:03:46;;;;;;;25.30;12.40;;;;;;;16.69;37.07;101558.72;4973861;28;20403;-71
2021/10/05 04:06:12;;;;;;;26.75;12.77;;;;;;;16.85;36.71;101558.06;4973670;28;20054;-70
2021/10/05 04:08:38;;;;;;;32.42;13.18;;;;;;;16.95;36.62;101571.38;4973791;28;20043;-71
2021/10/05 04:11:05;;;;;;;29.98;13.05;;;;;;;17.11;36.70;101571.56;4941721;28;20145;-70
2021/10/05 04:13:31;;;;;;;31.70;12.43;;;;;;;17.06;36.37;101563.09;4973687;28;20194;-70
2021/10/05 04:15:58;;;;;;;37.03;13.25;;;;;;;17.26;36.37;101568.19;4973579;28;20133;-71
2021/10/05 04:18:24;;;;;;;24.10;11.90;;;;;;;17.24;36.25;101566.63;4975710;28;20447;-71
2021/10/05 04:20:50;;;;;;;23.50;11.38;;;;;;;17.20;36.45;101567.94;4970358;28;20137;-71
2021/10/05 04:23:16;;;;;;;64.05;12.48;;;;;;;17.24;36.11;101561.25;5002441;28;20078;-72
2021/10/05 04:25:42;;;;;;;24.60;11.13;;;;;;;17.30;36.08;101560.66;4960364;28;20161;-69
2021/10/05 04:28:08;;;;;;;22.98;11.82;;;;;;;17.43;35.95;101567.34;4959264;28;20125;-69
2021/10/05 04:30:34;;;;;;;28.83;11.13;;;;;;;17.63;35.68;101573.38;4991614;28;20042;-70
2021/10/05 04:32:59;;;;;;;27.77;11.00;;;;;;;17.46;35.83;101569.75;4992009;28;20054;-68
2021/10/05 04:35:25;;;;;;;24.73;10.63;;;;;;;17.56;35.76;101573.16;4992100;28;20050;-68
2021/10/05 04:37:51;;;;;;;22.42;9.20;;;;;;;17.48;36.08;101570.41;4992432;28;20038;-68
2021/10/05 04:40:17;;;;;;;17.80;9.45;;;;;;;17.61;35.80;101581.59;4992131;28;20129;-68
2021/10/05 04:42:42;;;;;;;21.30;9.68;;;;;;;17.54;35.79;101563.59;5008287;28;20038;-66
2021/10/05 04:45:09;;;;;;;22.85;9.80;;;;;;;17.80;35.74;101577.88;4991783;28;20077;-66
2021/10/05 04:47:35;;;;;;;24.58;8.52;;;;;;;17.17;37.00;101570.94;4991846;28;20049;-67
2021/10/05 04:50:04;;;;;;;26.88;9.50;;;;;;;17.50;36.68;101557.66;4975648;28;20053;-68
2021/10/05 04:52:29;;;;;;;22.98;9.90;;;;;;;17.54;36.29;101580.56;4975805;28;20521;-68
2021/10/05 04:54:55;;;;;;;26.98;9.00;;;;;;;17.49;36.10;101561.38;4975321;28;20073;-68
2021/10/05 04:57:21;;;;;;;24.33;9.02;;;;;;;17.38;36.49;101574.16;4975730;28;20042;-69
2021/10/05 04:59:47;;;;;;;19.77;8.52;;;;;;;17.62;36.10;101582.47;4990990;28;20049;-68
2021/10/05 05:02:12;;;;;;;27.30;9.15;;;;;;;17.83;35.94;101585.63;5003694;28;20084;-68
2021/10/05 05:04:38;;;;;;;21.98;8.55;;;;;;;17.92;35.79;101588.22;5011201;28;20037;-69
2021/10/05 05:07:04;;;;;;;20.55;8.55;;;;;;;17.95;35.77;101592.44;5010825;28;20112;-68
2021/10/05 05:09:30;;;;;;;15.55;8.10;;;;;;;18.01;35.65;101616.00;5010781;28;20548;-68
2021/10/05 05:11:56;;;;;;;22.00;9.25;;;;;;;17.76;36.27;101595.34;4973497;28;20038;-68
2021/10/05 05:14:22;;;;;;;26.45;8.57;;;;;;;17.78;36.19;101594.16;4975460;28;20046;-68
2021/10/05 05:16:48;;;;;;;20.80;8.60;;;;;;;17.83;36.47;101602.63;4942904;28;20042;-68
2021/10/05 05:19:14;;;;;;;18.73;8.23;;;;;;;18.15;35.93;101602.81;4943012;28;20046;-68
2021/10/05 05:21:40;;;;;;;18.48;8.05;;;;;;;18.14;35.63;101601.13;5000573;28;20038;-70
2021/10/05 05:24:05;;;;;;;16.88;7.35;;;;;;;18.02;35.98;101617.72;4988736;28;20492;-69
2021/10/05 05:26:32;;;;;;;20.38;7.88;;;;;;;18.22;35.89;101601.16;5001714;28;20081;-69
2021/10/05 05:28:58;;;;;;;22.83;7.90;;;;;;;18.33;35.36;101606.28;4997843;28;20042;-69
2021/10/05 05:31:23;;;;;;;26.10;8.63;;;;;;;18.29;35.11;101602.25;4982901;28;20045;-69
2021/10/05 05:33:49;;;;;;;24.98;8.43;;;;;;;18.31;35.54;101604.75;5015318;28;20042;-69
2021/10/05 05:36:15;;;;;;;15.23;7.55;;;;;;;18.35;35.31;101598.91;4967854;28;20153;-69
2021/10/05 05:38:41;;;;;;;21.70;8.18;;;;;;;18.54;35.10;101614.00;4982504;28;20042;-69
2021/10/05 05:41:07;;;;;;;19.95;8.20;;;;;;;18.63;34.99;101596.03;4999919;28;20125;-69
2021/10/05 05:43:33;;;;;;;20.80;7.65;;;;;;;18.67;34.91;101621.59;4983038;28;20046;-69
2021/10/05 05:45:59;;;;;;;16.58;6.93;;;;;;;18.71;34.53;101610.38;4998096;28;20078;-70
2021/10/05 05:48:25;;;;;;;15.15;6.93;;;;;;;18.85;34.64;101630.44;4999848;28;20042;-70
2021/10/05 05:50:50;;;;;;;20.23;7.30;;;;;;;18.83;34.75;101627.06;4974262;28;20049;-70
2021/10/05 05:53:17;;;;;;;19.05;7.05;;;;;;;18.83;34.77;101630.59;4974545;28;20538;-69
2021/10/05 05:55:44;;;;;;;19.85;7.30;;;;;;;18.97;34.55;101619.22;5006880;28;20573;-69
2021/10/05 05:58:14;;;;;;;10.60;6.70;;;;;;;18.86;34.87;101615.94;4958440;28;20125;-69
2021/10/05 06:00:40;;;;;;;18.52;7.05;;;;;;;18.90;34.93;101623.53;4974353;28;20041;-69
2021/10/05 06:03:06;;;;;;;13.32;6.65;;;;;;;18.85;34.82;101635.81;4974045;28;20042;-69
2021/10/05 06:05:33;;;;;;;21.25;7.53;;;;;;;18.98;34.80;101607.41;4990210;28;20060;-69
2021/10/05 06:07:59;;;;;;;17.63;6.82;;;;;;;18.81;35.23;101623.66;4957848;28;20070;-69
2021/10/05 06:10:25;;;;;;;15.75;6.80;;;;;;;19.01;34.81;101628.63;4990726;28;20072;-70
2021/10/05 06:12:53;;;;;;;19.95;6.55;;;;;;;19.08;34.55;101626.94;4990304;28;20490;-68
2021/10/05 06:15:19;;;;;;;13.75;6.15;;;;;;;19.28;34.72;101630.25;4978949;28;20038;-67
2021/10/05 06:17:45;;;;;;;13.18;7.00;;;;;;;19.10;34.37;101619.56;4983153;28;20035;-75
2021/10/05 06:20:13;;;;;;;12.60;6.30;;;;;;;19.38;34.71;101625.53;4981374;28;20039;-69
2021/10/05 06:22:40;;;;;;;11.57;6.38;;;;;;;19.02;34.81;101640.25;5000244;28;20494;-68
2021/10/05 06:25:14;;;;;;;10.00;5.68;;;;;;;19.24;34.76;101640.47;4967120;28;20097;-68
2021/10/05 06:27:40;;;;;;;14.20;5.70;;;;;;;18.86;35.37;101643.75;4998537;28;20034;-77
2021/10/05 06:30:08;;;;;;;10.48;5.22;;;;;;;19.21;35.15;101648.88;4981447;28;20100;-70
2021/10/05 06:32:34;;;;;;;13.48;5.35;;;;;;;19.28;34.68;101641.03;4995335;28;20518;-69
2021/10/05 06:35:00;;;;;;;12.77;5.47;;;;;;;18.76;35.15;101626.84;4966153;28;20086;-69
2021/10/05 06:37:26;;;;;;;13.32;5.53;;;;;;;18.77;35.07;101641.16;4999190;28;20177;-68
2021/10/05 06:39:52;;;;;;;8.23;5.32;;;;;;;18.98;35.16;101653.19;5013917;28;20058;-70
2021/10/05 06:42:18;;;;;;;9.80;5.07;;;;;;;19.27;34.63;101639.28;4998908;28;20034;-70
2021/10/05 06:44:44;;;;;;;10.68;6.30;;;;;;;18.89;35.38;101642.56;5003229;28;20046;-71
2021/10/05 06:47:10;;;;;;;11.90;5.95;;;;;;;18.50;36.20;101639.53;4992829;28;20049;-71
2021/10/05 06:49:36;;;;;;;9.20;5.47;;;;;;;18.77;35.72;101644.72;4982523;28;20048;-70
2021/10/05 06:52:04;;;;;;;10.98;5.50;;;;;;;19.13;35.40;101646.16;4998357;28;20062;-71
2021/10/05 06:54:31;;;;;;;14.98;5.80;;;;;;;18.65;35.94;101635.22;4996746;28;20494;-71
2021/10/05 06:56:57;;;;;;;9.82;5.18;;;;;;;19.49;34.82;101649.47;4998814;28;20037;-71
2021/10/05 06:59:23;;;;;;;11.55;5.32;;;;;;;19.78;33.76;101647.13;4998694;28;20121;-70
2021/10/05 07:01:49;;;;;;;10.88;5.00;;;;;;;20.10;33.34;101649.78;4980592;28;20128;-70
2021/10/05 07:04:15;;;;;;;9.57;4.97;;;;;;;20.16;32.83;101640.22;5000459;28;20896;-69
2021/10/05 07:06:41;;;;;;;8.23;5.30;;;;;;;20.31;32.78;101652.00;4965556;28;20049;-69
2021/10/05 07:09:07;;;;;;;13.35;5.18;;;;;;;20.59;32.35;101661.38;4982574;28;20042;-69
2021/10/05 07:11:35;;;;;;;11.77;5.80;;;;;;;20.35;32.64;101645.22;4961827;28;20049;-69
2021/10/05 07:14:01;;;;;;;9.10;5.05;;;;;;;20.39;32.67;101662.78;4999375;28;20081;-69
2021/10/05 07:16:26;;;;;;;12.00;5.50;;;;;;;20.48;32.43;101653.63;4964918;28;20157;-66
2021/10/05 07:18:52;;;;;;;13.25;5.55;;;;;;;20.80;31.82;101669.72;4991880;28;20510;-70
2021/10/05 07:21:18;;;;;;;9.43;4.90;;;;;;;20.37;32.74;101662.09;4948857;28;20121;-70
2021/10/05 07:23:44;;;;;;;11.23;5.22;;;;;;;20.62;32.21;101658.31;4981328;28;20134;-69
2021/10/05 07:26:10;;;;;;;11.05;5.20;;;;;;;19.86;33.49;101663.31;4961698;28;20148;-68
2021/10/05 07:28:36;;;;;;;9.10;4.80;;;;;;;19.79;33.52;101682.00;4997626;28;20553;-69
2021/10/05 07:31:02;;;;;;;10.18;4.63;;;;;;;19.97;33.19;101663.78;4964486;28;20133;-69
2021/10/05 07:33:28;;;;;;;7.25;4.57;;;;;;;20.36;32.61;101668.53;4964244;28;20132;-69
2021/10/05 07:35:54;;;;;;;8.02;6.00;;;;;;;20.37;32.84;101670.19;4998147;28;20048;-70
2021/10/05 07:38:21;;;;;;;15.13;5.70;;;;;;;20.67;32.08;101661.31;4998325;28;20053;-70
2021/10/05 07:40:46;;;;;;;6.13;4.68;;;;;;;20.82;31.69;101675.81;4993857;28;20825;-69
2021/10/05 07:43:12;;;;;;;5.95;4.50;;;;;;;20.80;31.53;101677.84;4965208;28;20144;-69
2021/10/05 07:45:38;;;;;;;14.52;4.90;;;;;;;19.83;33.05;101677.97;4981750;28;20038;-69
2021/10/05 07:48:04;;;;;;;7.13;4.93;;;;;;;20.36;32.90;101671.22;4979897;28;20384;-70
2021/10/05 07:50:31;;;;;;;10.77;4.70;;;;;;;19.91;33.14;101682.53;4981600;28;20490;-69
2021/10/05 07:53:01;;;;;;;13.85;5.10;;;;;;;20.69;32.79;101662.00;4995004;28;20584;-70
2021/10/05 07:55:31;;;;;;;7.05;4.57;;;;;;;20.68;31.79;101661.16;4973831;28;20044;-68
2021/10/05 07:58:00;;;;;;;8.63;5.03;;;;;;;20.89;32.26;101672.22;5010090;28;20124;-69
2021/10/05 08:00:26;;;;;;;12.50;5.35;;;;;;;20.76;32.01;101679.19;4982484;28;20045;-68
2021/10/05 08:02:53;;;;;;;7.90;4.50;;;;;;;20.00;33.21;101659.94;4980947;28;20100;-69
2021/10/05 08:05:19;;;;;;;12.85;6.40;;;;;;;20.70;32.33;101686.13;4995860;28;20061;-69
2021/10/05 08:07:47;;;;;;;11.55;4.85;;;;;;;20.90;32.09;101675.75;4985595;28;20180;-69
2021/10/05 08:10:14;;;;;;;9.48;4.47;;;;;;;21.42;31.03;101677.69;4984043;28;20046;-69
2021/10/05 08:12:40;;;;;;;9.27;4.10;;;;;;;21.69;30.32;101677.16;4999967;28;20049;-69
2021/10/05 08:15:07;;;;;;;6.22;3.75;;;;;;;21.65;30.22;101673.13;4997326;28;20046;-70
2021/10/05 08:17:34;;;;;;;7.97;4.40;;;;;;;21.64;30.21;101670.63;5021658;28;20041;-69
2021/10/05 08:20:02;;;;;;;8.45;4.28;;;;;;;20.95;31.54;101674.25;4978920;28;20042;-69
2021/10/05 08:22:28;;;;;;;4.65;3.90;;;;;;;20.69;31.31;101678.19;5000297;28;20042;-69
2021/10/05 08:24:54;;;;;;;8.70;4.22;;;;;;;20.34;31.93;101692.13;4978303;28;20054;-69
2021/10/05 08:27:19;;;;;;;6.25;4.40;;;;;;;19.91;32.91;101686.06;4996460;28;20046;-69
2021/10/05 08:29:47;;;;;;;6.43;3.67;;;;;;;20.05;32.71;101666.50;4985007;28;20253;-69
2021/10/05 08:32:14;;;;;;;4.75;3.95;;;;;;;19.90;33.14;101681.69;5000947;28;20046;-68
2021/10/05 08:34:40;;;;;;;10.35;4.60;;;;;;;20.18;33.12;101674.09;4999426;28;20093;-69
2021/10/05 08:37:06;;;;;;;9.18;4.05;;;;;;;20.10;32.87;101679.47;4988685;28;20065;-69
2021/10/05 08:39:32;;;;;;;11.32;4.25;;;;;;;20.60;31.95;101688.19;4978655;28;20049;-69
2021/10/05 08:41:58;;;;;;;6.93;4.25;;;;;;;20.52;32.26;101688.22;5010934;28;20073;-68
2021/10/05 08:44:25;;;;;;;11.07;4.00;;;;;;;20.97;31.34;101685.69;4987567;28;20451;-69
2021/10/05 08:46:52;;;;;;;9.60;4.03;;;;;;;21.24;31.28;101697.91;4966738;28;20048;-67
2021/10/05 08:49:22;;;;;;;8.13;4.43;;;;;;;21.55;30.61;101690.63;5000731;28;20038;-69
2021/10/05 08:51:48;;;;;;;10.48;4.95;;;;;;;20.65;31.86;101703.88;4966765;28;20059;-69
2021/10/05 08:54:15;;;;;;;13.68;4.28;;;;;;;20.92;31.44;101695.34;4979874;28;20222;-69
2021/10/05 08:56:42;;;;;;;6.65;4.68;;;;;;;20.95;31.55;101690.47;4979771;28;20042;-69
2021/10/05 08:59:09;;;;;;;7.50;4.65;;;;;;;21.05;31.04;101698.38;4969099;28;20425;-70
2021/10/05 09:01:35;;;;;;;8.43;4.28;;;;;;;20.99;30.91;101685.53;5004201;28;20740;-69
2021/10/05 09:04:03;;;;;;;10.82;4.47;;;;;;;21.10;30.77;101699.50;4972866;28;20501;-69
2021/10/05 09:06:29;;;;;;;6.88;4.18;;;;;;;21.44;30.49;101691.88;5002263;28;20038;-69
2021/10/05 09:08:56;;;;;;;7.68;4.50;;;;;;;21.80;30.00;101702.16;4998499;28;20507;-69
2021/10/05 09:11:26;;;;;;;12.10;4.72;;;;;;;21.69;29.99;101693.38;5000565;28;20042;-68
2021/10/05 09:13:54;;;;;;;9.20;4.40;;;;;;;21.44;30.42;101680.22;4982885;28;20069;-69
2021/10/05 09:16:26;;;;;;;6.30;3.80;;;;;;;22.50;28.88;101698.97;4995807;28;20045;-68
2021/10/05 09:19:31;;;;;;;6.88;4.30;;;;;;;22.19;28.76;101695.53;4984994;28;20046;-69
2021/10/05 09:21:56;;;;;;;5.90;4.15;;;;;;;21.29;30.13;101663.09;4984532;28;20211;-68
2021/10/05 09:24:22;;;;;;;7.00;4.20;;;;;;;21.90;29.27;101695.47;4985437;28;20560;-69
2021/10/05 09:26:57;;;;;;;6.72;4.28;;;;;;;22.45;28.76;101685.13;4983008;28;20049;-69
2021/10/05 09:29:31;;;;;;;7.32;4.38;;;;;;;22.17;28.75;101703.00;5000415;28;20137;-67
2021/10/05 09:32:17;;;;;;;6.68;4.35;;;;;;;21.87;29.56;101694.97;4998916;28;20061;-69
2021/10/05 09:34:50;;;;;;;14.75;4.60;;;;;;;21.87;29.71;101690.41;4999883;28;20038;-68
2021/10/05 09:37:20;;;;;;;8.75;4.20;;;;;;;21.63;29.91;101679.75;4980415;28;20953;-69
2021/10/05 09:39:47;;;;;;;8.65;4.22;;;;;;;22.21;28.67;101690.81;4964160;28;20229;-69
2021/10/05 09:42:39;;;;;;;8.02;3.80;;;;;;;23.43;27.31;101699.22;4983523;28;20103;-68
2021/10/05 09:45:06;;;;;;;6.80;3.90;;;;;;;22.17;28.41;101691.34;5000640;28;20050;-69
2021/10/05 09:47:46;;;;;;;7.32;3.90;;;;;;;22.57;27.75;101709.94;4996409;28;20197;-69
2021/10/05 11:06:49;;;;;;;8.68;4.22;;;;;;;18.51;37.83;101742.66;5093634;27;20423;-71
2021/10/05 11:09:15;;;;;;;10.38;4.75;;;;;;;18.20;37.65;101751.13;5068186;28;20062;-69
2021/10/05 11:11:43;;;;;;;9.90;4.60;;;;;;;18.33;37.21;101746.19;5068508;28;20048;-68
2021/10/05 11:14:20;;;;;;;9.70;4.35;;;;;;;18.18;37.56;101742.38;5085267;28;20516;-68
2021/10/05 11:16:54;;;;;;;7.75;4.18;;;;;;;18.52;37.13;101745.19;5085019;28;20044;-68
2021/10/05 11:19:20;;;;;;;13.85;4.68;;;;;;;18.68;36.51;101745.28;5068706;28;20198;-68
2021/10/05 11:21:48;;;;;;;9.85;4.55;;;;;;;18.37;36.67;101742.19;5052138;28;20146;-68
2021/10/05 11:24:15;;;;;;;8.07;4.32;;;;;;;18.78;36.20;101743.31;5067799;28;20048;-70
2021/10/05 11:26:45;;;;;;;14.63;5.40;;;;;;;19.21;35.38;101734.25;5084243;28;20048;-68
2021/10/05 11:29:11;;;;;;;10.40;4.55;;;;;;;18.34;36.41;101734.41;5070814;28;20090;-68
2021/10/05 11:32:02;;;;;;;4.93;3.85;;;;;;;18.71;35.77;101736.03;5049126;28;20053;-68
2021/10/05 11:34:28;;;;;;;8.40;4.10;;;;;;;18.56;36.51;101743.03;5061083;28;20136;-69
2021/10/05 11:37:00;;;;;;;5.47;4.15;;;;;;;18.48;36.00;101741.94;5064788;28;20052;-70
2021/10/05 11:39:27;;;;;;;7.32;3.60;;;;;;;18.45;35.82;101739.56;5064333;28;20143;-70
2021/10/05 11:41:56;;;;;;;7.03;4.00;;;;;;;18.24;36.65;101740.91;5047767;28;20044;-70
2021/10/05 11:44:25;;;;;;;6.65;3.90;;;;;;;18.20;36.26;101718.00;5063666;28;20067;-70
2021/10/05 11:47:02;;;;;;;5.47;3.50;;;;;;;18.39;36.01;101740.22;5046836;28;20040;-70
2021/10/05 11:49:33;;;;;;;7.40;3.50;;;;;;;18.56;35.52;101730.38;5046100;28;20071;-69
2021/10/05 11:52:00;;;;;;;10.25;3.45;;;;;;;18.29;36.06;101736.75;5031452;28;20143;-70
2021/10/05 11:54:29;;;;;;;6.53;4.00;;;;;;;18.63;35.52;101731.47;5064366;28;20049;-69
2021/10/05 11:56:56;;;;;;;9.60;4.30;;;;;;;18.74;35.08;101741.97;5031007;28;20580;-69
2021/10/05 11:59:32;;;;;;;5.13;3.70;;;;;;;18.60;35.08;101721.00;5065274;28;20048;-69
2021/10/05 12:02:06;;;;;;;10.63;4.60;;;;;;;19.27;34.38;101738.97;5048072;28;20583;-69
2021/10/05 12:04:33;;;;;;;8.93;4.00;;;;;;;18.78;34.63;101734.38;5047281;28;20047;-69
2021/10/05 12:07:09;;;;;;;8.75;4.47;;;;;;;18.92;34.92;101714.94;5055640;28;20066;-69
2021/10/05 12:09:36;;;;;;;7.50;4.22;;;;;;;19.03;34.45;101736.22;5034686;28;20049;-69
2021/10/05 12:12:09;;;;;;;5.13;4.03;;;;;;;19.21;34.21;101728.84;5050259;28;20048;-69
2021/10/05 12:14:38;;;;;;;7.82;4.03;;;;;;;19.36;33.90;101730.81;5017554;28;20060;-69
2021/10/05 12:17:06;;;;;;;9.75;4.20;;;;;;;19.34;33.76;101703.16;5032986;28;20063;-70
2021/10/05 12:19:37;;;;;;;9.10;4.00;;;;;;;19.40;33.69;101709.75;5017279;28;20036;-70
2021/10/05 12:22:08;;;;;;;8.77;4.45;;;;;;;18.76;34.48;101669.94;5016308;28;21431;-68
2021/10/05 12:24:46;;;;;;;8.20;4.53;;;;;;;19.25;33.92;101689.81;5015385;28;20545;-69
2021/10/05 12:27:39;;;;;;;10.02;4.28;;;;;;;19.11;33.95;101666.19;5049514;28;20045;-68
2021/10/05 12:30:18;;;;;;;9.00;4.00;;;;;;;19.29;33.78;101697.44;5032248;28;20539;-67
2021/10/05 12:32:54;;;;;;;7.05;4.15;;;;;;;19.27;33.66;101710.22;5033712;28;20509;-69
2021/10/05 12:35:25;;;;;;;5.75;4.00;;;;;;;18.56;33.85;101675.75;5032527;28;20788;-68
2021/10/05 12:38:14;;;;;;;8.60;4.30;;;;;;;19.14;33.73;101682.91;5014369;28;20048;-69